createdAt,value
2022-12-23T00:01:13.849Z,8.18
2022-12-23T00:03:40.489Z,8.16
2022-12-23T00:06:12.977Z,8.17
2022-12-23T00:08:39.680Z,8.19
2022-12-23T00:11:10.437Z,8.21
2022-12-23T00:13:55.473Z,8.18
2022-12-23T00:16:21.897Z,8.17
2022-12-23T00:18:48.530Z,8.16
2022-12-23T00:21:17.146Z,8.17
2022-12-23T00:23:46.314Z,8.18
2022-12-23T00:26:24.585Z,8.19
2022-12-23T00:28:51.371Z,8.23
2022-12-23T00:31:19.139Z,8.21
2022-12-23T00:33:48.486Z,8.23
2022-12-23T00:36:32.916Z,8.24
2022-12-23T00:39:18.811Z,8.27
2022-12-23T00:42:04.035Z,8.23
2022-12-23T00:44:30.853Z,8.20
2022-12-23T00:46:57.457Z,8.19
2022-12-23T00:49:42.064Z,8.19
2022-12-23T00:52:12.074Z,8.17
2022-12-23T00:54:38.945Z,8.17
2022-12-23T00:57:05.747Z,8.18
2022-12-23T00:59:33.254Z,8.20
2022-12-23T01:02:25.632Z,8.19
2022-12-23T01:05:10.425Z,8.21
2022-12-23T01:07:36.920Z,8.24
2022-12-23T01:10:04.032Z,8.29
2022-12-23T01:12:30.409Z,8.32
2022-12-23T01:14:56.870Z,8.36
2022-12-23T01:17:23.417Z,8.37
2022-12-23T01:19:50.361Z,8.37
2022-12-23T01:22:16.839Z,8.36
2022-12-23T01:24:43.235Z,8.39
2022-12-23T01:27:09.673Z,8.45
2022-12-23T01:29:36.033Z,8.49
2022-12-23T01:32:02.596Z,8.53
2022-12-23T01:34:36.019Z,8.58
2022-12-23T01:37:03.331Z,8.57
2022-12-23T01:39:29.880Z,8.53
2022-12-23T01:42:14.655Z,8.48
2022-12-23T01:44:51.612Z,8.50
2022-12-23T01:47:27.740Z,8.50
2022-12-23T01:49:59.891Z,8.48
2022-12-23T01:52:26.539Z,8.49
2022-12-23T01:54:53.737Z,8.46
2022-12-23T01:57:20.613Z,8.38
2022-12-23T02:00:05.747Z,8.34
2022-12-23T02:02:54.647Z,8.34
2022-12-23T02:05:23.569Z,8.35
2022-12-23T02:08:10.817Z,8.37
2022-12-23T02:11:06.462Z,8.41
2022-12-23T02:14:01.559Z,8.45
2022-12-23T02:16:31.449Z,8.49
2022-12-23T02:19:10.169Z,8.53
2022-12-23T02:21:52.463Z,8.54
2022-12-23T02:24:56.215Z,8.56
2022-12-23T02:27:44.345Z,8.57
2022-12-23T02:30:40.922Z,8.54
2022-12-23T02:33:20.689Z,8.51
2022-12-23T02:35:56.282Z,8.45
2022-12-23T02:38:48.256Z,8.44
2022-12-23T02:41:22.932Z,8.41
2022-12-23T02:44:00.423Z,8.44
2022-12-23T02:46:34.425Z,8.46
2022-12-23T02:49:13.840Z,8.48
2022-12-23T02:51:49.484Z,8.49
2022-12-23T02:54:22.583Z,8.49
2022-12-23T02:56:50.988Z,8.51
2022-12-23T02:59:24.759Z,8.50
2022-12-23T03:01:53.035Z,8.51
2022-12-23T03:04:19.829Z,8.49
2022-12-23T03:06:49.810Z,8.47
2022-12-23T03:09:44.937Z,8.53
2022-12-23T03:12:17.391Z,8.56
2022-12-23T03:15:05.167Z,8.59
2022-12-23T03:17:59.124Z,8.56
2022-12-23T03:20:28.304Z,8.54
2022-12-23T03:23:18.791Z,8.54
2022-12-23T03:25:56.287Z,8.58
2022-12-23T03:28:33.639Z,8.61
2022-12-23T03:31:03.759Z,8.61
2022-12-23T03:33:39.527Z,8.63
2022-12-23T03:36:29.929Z,8.59
2022-12-23T03:38:57.390Z,8.56
2022-12-23T03:41:30.911Z,8.59
2022-12-23T03:44:09.067Z,8.63
2022-12-23T03:46:43.396Z,8.67
2022-12-23T03:49:17.543Z,8.65
2022-12-23T03:51:53.709Z,8.66
2022-12-23T03:54:27.306Z,8.70
2022-12-23T03:57:04.974Z,8.67
2022-12-23T03:59:36.090Z,8.67
2022-12-23T04:02:33.393Z,8.67
2022-12-23T04:05:07.194Z,8.69
2022-12-23T04:07:54.585Z,8.70
2022-12-23T04:10:22.978Z,8.74
2022-12-23T04:12:49.714Z,8.72
2022-12-23T04:15:21.692Z,8.73
2022-12-23T04:17:49.181Z,8.72
2022-12-23T04:20:15.962Z,8.73
2022-12-23T04:22:43.747Z,8.74
2022-12-23T04:25:12.020Z,8.71
2022-12-23T04:27:38.863Z,8.69
2022-12-23T04:30:07.141Z,8.70
2022-12-23T04:32:33.853Z,8.69
2022-12-23T04:35:00.323Z,8.68
2022-12-23T04:37:26.748Z,8.67
2022-12-23T04:39:53.104Z,8.69
2022-12-23T04:42:19.521Z,8.71
2022-12-23T04:44:45.877Z,8.69
2022-12-23T04:47:12.278Z,8.71
2022-12-23T04:49:38.736Z,8.72
2022-12-23T04:52:05.439Z,8.74
2022-12-23T04:54:31.822Z,8.79
2022-12-23T04:56:58.221Z,8.84
2022-12-23T04:59:24.580Z,8.88
2022-12-23T05:01:51.201Z,8.90
2022-12-23T05:04:17.815Z,8.96
2022-12-23T05:06:44.361Z,8.98
2022-12-23T05:09:10.812Z,9.00
2022-12-23T05:11:41.849Z,9.02
2022-12-23T05:14:12.195Z,9.06
2022-12-23T05:16:40.107Z,9.08
2022-12-23T05:19:06.791Z,9.08
2022-12-23T05:21:33.371Z,9.08
2022-12-23T05:23:59.765Z,9.04
2022-12-23T05:26:26.131Z,9.05
2022-12-23T05:28:52.597Z,9.06
2022-12-23T05:31:19.257Z,9.08
2022-12-23T05:33:45.661Z,9.09
2022-12-23T05:36:12.813Z,9.10
2022-12-23T05:38:39.255Z,9.09
2022-12-23T05:41:05.986Z,9.05
2022-12-23T05:43:32.499Z,9.02
2022-12-23T05:45:58.911Z,9.00
2022-12-23T05:48:25.319Z,8.97
2022-12-23T05:50:53.211Z,8.95
2022-12-23T05:53:20.491Z,8.93
2022-12-23T05:55:47.469Z,8.92
2022-12-23T05:58:14.455Z,8.90
2022-12-23T06:00:40.846Z,8.91
2022-12-23T06:03:07.316Z,8.93
2022-12-23T06:05:36.439Z,8.93
2022-12-23T06:08:02.803Z,8.92
2022-12-23T06:10:29.289Z,8.92
2022-12-23T06:12:55.684Z,8.95
2022-12-23T06:15:22.124Z,8.97
2022-12-23T06:17:49.476Z,8.95
2022-12-23T06:20:20.220Z,8.95
2022-12-23T06:22:47.597Z,8.99
2022-12-23T06:25:14.040Z,8.97
2022-12-23T06:27:40.422Z,8.93
2022-12-23T06:30:07.729Z,8.98
2022-12-23T06:32:38.257Z,8.99
2022-12-23T06:35:06.599Z,8.99
2022-12-23T06:37:33.037Z,9.01
2022-12-23T06:39:59.530Z,9.00
2022-12-23T06:42:25.926Z,9.00
2022-12-23T06:44:52.380Z,8.98
2022-12-23T06:47:18.737Z,8.92
2022-12-23T06:49:45.220Z,8.92
2022-12-23T06:52:11.570Z,8.98
2022-12-23T06:54:38.067Z,9.03
2022-12-23T06:57:04.793Z,9.11
2022-12-23T06:59:31.559Z,9.14
2022-12-23T07:01:58.157Z,9.19
2022-12-23T07:04:24.706Z,9.24
2022-12-23T07:06:51.076Z,9.26
2022-12-23T07:09:17.690Z,9.35
2022-12-23T07:11:44.253Z,9.36
2022-12-23T07:14:10.826Z,9.38
2022-12-23T07:16:37.390Z,9.41
2022-12-23T07:19:03.931Z,9.46
2022-12-23T07:21:30.539Z,9.47
2022-12-23T07:23:56.979Z,9.49
2022-12-23T07:26:23.488Z,9.52
2022-12-23T07:28:49.861Z,9.53
2022-12-23T07:31:16.548Z,9.54
2022-12-23T07:33:43.388Z,9.56
2022-12-23T07:36:09.861Z,9.57
2022-12-23T07:38:36.576Z,9.60
2022-12-23T07:41:03.185Z,9.63
2022-12-23T07:43:29.679Z,9.66
2022-12-23T07:46:00.428Z,9.68
2022-12-23T07:48:27.464Z,9.70
2022-12-23T07:50:59.584Z,9.74
2022-12-23T07:53:25.951Z,9.76
2022-12-23T07:55:56.409Z,9.78
2022-12-23T07:58:23.614Z,9.82
2022-12-23T08:00:50.258Z,9.85
2022-12-23T08:03:16.921Z,9.91
2022-12-23T08:05:43.453Z,9.95
2022-12-23T08:08:09.819Z,9.92
2022-12-23T08:10:36.175Z,9.92
2022-12-23T08:13:02.556Z,9.95
2022-12-23T08:15:28.901Z,10.01
2022-12-23T08:17:56.579Z,10.09
2022-12-23T08:20:23.041Z,10.20
2022-12-23T08:22:49.553Z,10.30
2022-12-23T08:25:16.033Z,10.41
2022-12-23T08:27:42.425Z,10.52
2022-12-23T08:30:09.605Z,10.71
2022-12-23T08:32:36.041Z,10.87
2022-12-23T08:35:02.373Z,10.98
2022-12-23T08:37:28.814Z,11.05
2022-12-23T08:39:55.571Z,11.07
2022-12-23T08:42:21.990Z,11.12
2022-12-23T08:44:48.353Z,11.14
2022-12-23T08:47:14.839Z,11.17
2022-12-23T08:49:41.351Z,11.22
2022-12-23T08:52:07.822Z,11.26
2022-12-23T08:54:34.362Z,11.29
2022-12-23T08:57:00.777Z,11.31
2022-12-23T08:59:27.165Z,11.31
2022-12-23T09:04:28.758Z,11.32
2022-12-23T09:06:55.115Z,11.31
2022-12-23T09:09:21.594Z,11.32
2022-12-23T09:11:48.033Z,11.35
2022-12-23T09:14:14.554Z,11.36
2022-12-23T09:16:40.975Z,11.36
2022-12-23T09:19:07.967Z,11.39
2022-12-23T09:21:35.002Z,11.40
2022-12-23T09:24:01.606Z,11.43
2022-12-23T09:26:30.255Z,11.46
2022-12-23T09:28:57.231Z,11.53
2022-12-23T09:31:27.887Z,11.63
2022-12-23T09:33:58.837Z,11.71
2022-12-23T09:36:25.311Z,11.77
2022-12-23T09:38:56.031Z,11.79
2022-12-23T09:41:53.704Z,11.80
2022-12-23T09:44:48.818Z,11.75
2022-12-23T09:47:19.915Z,11.73
2022-12-23T09:49:56.599Z,11.65
2022-12-23T09:52:30.893Z,11.57
2022-12-23T09:54:57.297Z,11.46
2022-12-23T09:57:36.269Z,11.33
2022-12-23T10:00:15.410Z,11.28
2022-12-23T10:03:13.044Z,11.20
2022-12-23T10:05:56.311Z,11.15
2022-12-23T10:08:35.888Z,11.18
2022-12-23T10:11:10.694Z,11.21
2022-12-23T10:13:45.508Z,11.26
2022-12-23T10:16:18.172Z,11.34
2022-12-23T10:18:57.471Z,11.36
2022-12-23T10:21:35.302Z,11.41
2022-12-23T10:24:12.145Z,11.45
2022-12-23T10:27:04.210Z,11.46
2022-12-23T10:29:32.465Z,11.50
2022-12-23T10:32:01.589Z,11.53
2022-12-23T10:34:54.954Z,11.61
2022-12-23T10:37:29.242Z,11.58
2022-12-23T10:40:17.699Z,11.57
2022-12-23T10:42:46.607Z,11.47
2022-12-23T10:45:39.013Z,11.42
2022-12-23T10:48:47.862Z,11.36
2022-12-23T10:51:23.126Z,11.39
2022-12-23T10:53:54.001Z,11.42
2022-12-23T10:56:21.129Z,11.47
2022-12-23T10:58:54.335Z,11.51
2022-12-23T11:01:27.085Z,11.60
2022-12-23T11:04:15.136Z,11.69
2022-12-23T11:07:10.672Z,11.77
2022-12-23T11:09:44.163Z,11.83
2022-12-23T11:12:12.074Z,11.91
2022-12-23T11:14:57.658Z,11.99
2022-12-23T11:17:28.868Z,12.03
2022-12-23T11:20:10.514Z,12.07
2022-12-23T11:22:47.679Z,12.14
2022-12-23T11:25:24.922Z,12.19
2022-12-23T11:27:56.902Z,12.23
2022-12-23T11:30:23.419Z,12.27
2022-12-23T11:32:51.216Z,12.31
2022-12-23T11:35:32.060Z,12.37
2022-12-23T11:38:00.727Z,12.45
2022-12-23T11:40:30.391Z,12.49
2022-12-23T11:42:59.885Z,12.53
2022-12-23T11:45:34.167Z,12.55
2022-12-23T11:48:00.666Z,12.54
2022-12-23T11:50:33.101Z,12.49
2022-12-23T11:53:20.469Z,12.52
2022-12-23T11:56:08.789Z,12.51
2022-12-23T11:58:44.903Z,12.49
2022-12-23T12:01:18.819Z,12.46
2022-12-23T12:03:49.801Z,12.40
2022-12-23T12:06:19.467Z,12.37
2022-12-23T12:08:50.250Z,12.29
2022-12-23T12:11:29.715Z,12.24
2022-12-23T12:14:21.520Z,12.21
2022-12-23T12:16:57.752Z,12.19
2022-12-23T12:19:29.983Z,12.17
2022-12-23T12:22:02.296Z,12.13
2022-12-23T12:24:36.780Z,12.10
2022-12-23T12:27:06.667Z,12.10
2022-12-23T12:29:44.250Z,12.03
2022-12-23T12:32:49.627Z,11.96
2022-12-23T12:35:22.749Z,11.89
2022-12-23T12:37:57.572Z,11.88
2022-12-23T12:40:42.306Z,11.82
2022-12-23T12:43:16.659Z,11.79
2022-12-23T12:45:52.506Z,11.76
2022-12-23T12:48:36.427Z,11.72
2022-12-23T12:51:12.158Z,11.71
2022-12-23T12:53:53.625Z,11.64
2022-12-23T12:56:30.573Z,11.56
2022-12-23T12:58:57.066Z,11.52
2022-12-23T13:01:42.957Z,11.47
2022-12-23T13:04:21.705Z,11.44
2022-12-23T13:06:57.259Z,11.40
2022-12-23T13:09:44.294Z,11.38
2022-12-23T13:12:30.908Z,11.36
2022-12-23T13:15:23.520Z,11.37
2022-12-23T13:18:11.045Z,11.38
2022-12-23T13:20:48.685Z,11.37
2022-12-23T13:23:45.837Z,11.37
2022-12-23T13:26:23.486Z,11.32
2022-12-23T13:29:01.415Z,11.28
2022-12-23T13:31:49.871Z,11.27
2022-12-23T13:34:19.173Z,11.24
2022-12-23T13:36:56.836Z,11.21
2022-12-23T13:39:38.762Z,11.18
2022-12-23T13:42:09.474Z,11.18
2022-12-23T13:44:36.618Z,11.19
2022-12-23T13:47:21.818Z,11.21
2022-12-23T13:50:07.854Z,11.21
2022-12-23T13:52:43.728Z,11.20
2022-12-23T13:55:24.700Z,11.21
2022-12-23T13:57:54.159Z,11.19
2022-12-23T14:00:20.518Z,11.18
2022-12-23T14:03:02.222Z,11.16
2022-12-23T14:05:51.893Z,11.13
2022-12-23T14:08:18.198Z,11.10
2022-12-23T14:10:55.027Z,11.00
2022-12-23T14:13:23.847Z,10.98
2022-12-23T14:16:11.915Z,10.98
2022-12-23T14:19:11.476Z,10.93
2022-12-23T14:21:50.418Z,10.88
2022-12-23T14:25:16.537Z,10.83
2022-12-23T14:28:06.777Z,10.82
2022-12-23T14:30:40.412Z,10.85
2022-12-23T14:33:18.856Z,10.86
2022-12-23T14:35:45.276Z,10.89
2022-12-23T14:38:14.610Z,10.89
2022-12-23T14:40:47.083Z,10.89
2022-12-23T14:43:50.985Z,10.89
2022-12-23T14:46:35.683Z,10.81
2022-12-23T14:49:36.869Z,10.82
2022-12-23T14:51:51.910Z,10.81
2022-12-23T14:54:38.368Z,10.79
2022-12-23T14:57:17.448Z,10.79
2022-12-23T15:00:02.872Z,10.75
2022-12-23T15:02:37.043Z,10.76
2022-12-23T15:05:04.253Z,10.75
2022-12-23T15:07:46.027Z,10.71
2022-12-23T15:10:23.891Z,10.68
2022-12-23T15:12:54.837Z,10.64
2022-12-23T15:15:23.242Z,10.65
2022-12-23T15:18:02.104Z,10.64
2022-12-23T15:20:28.734Z,10.65
2022-12-23T15:23:01.029Z,10.65
2022-12-23T15:25:33.509Z,10.64
2022-12-23T15:28:02.763Z,10.59
2022-12-23T15:30:34.582Z,10.56
2022-12-23T15:33:28.007Z,10.54
2022-12-23T15:35:54.025Z,10.51
2022-12-23T15:38:22.211Z,10.52
2022-12-23T15:41:01.288Z,10.52
2022-12-23T15:43:28.233Z,10.52
2022-12-23T15:45:54.729Z,10.54
2022-12-23T15:48:28.823Z,10.55
2022-12-23T15:51:00.801Z,10.57
2022-12-23T15:53:39.519Z,10.62
2022-12-23T15:56:19.530Z,10.64
2022-12-23T15:58:46.246Z,10.65
2022-12-23T16:01:18.324Z,10.62
2022-12-23T16:03:52.139Z,10.66
2022-12-23T16:06:27.115Z,10.64
2022-12-23T16:09:19.845Z,10.62
2022-12-23T16:12:20.529Z,10.60
2022-12-23T16:15:39.574Z,10.58
2022-12-23T16:18:13.504Z,10.60
2022-12-23T16:20:47.324Z,10.65
2022-12-23T16:23:16.623Z,10.67
2022-12-23T16:25:50.798Z,10.73
2022-12-23T16:28:30.314Z,10.71
2022-12-23T16:30:58.290Z,10.74
2022-12-23T16:33:33.260Z,10.73
2022-12-23T16:36:18.720Z,10.68
2022-12-23T16:38:45.563Z,10.69
2022-12-23T16:41:12.285Z,10.73
2022-12-23T16:43:38.792Z,10.76
2022-12-23T16:46:05.791Z,10.80
2022-12-23T16:48:42.191Z,10.81
2022-12-23T16:51:13.145Z,10.87
2022-12-23T16:53:39.661Z,10.91
2022-12-23T16:56:11.787Z,10.95
2022-12-23T16:58:38.534Z,10.98
2022-12-23T17:01:05.446Z,11.00
2022-12-23T17:03:32.905Z,11.04
2022-12-23T17:05:59.207Z,11.06
2022-12-23T17:08:25.682Z,11.10
2022-12-23T17:10:52.392Z,11.13
2022-12-23T17:13:18.976Z,11.15
2022-12-23T17:15:45.432Z,11.22
2022-12-23T17:18:13.840Z,11.26
2022-12-23T17:20:41.201Z,11.30
2022-12-23T17:23:25.712Z,11.32
2022-12-23T17:25:52.371Z,11.37
2022-12-23T17:28:19.535Z,11.38
2022-12-23T17:30:45.957Z,11.40
2022-12-23T17:33:18.475Z,11.45
2022-12-23T17:35:44.853Z,11.48
2022-12-23T17:38:16.045Z,11.53
2022-12-23T17:40:45.119Z,11.55
2022-12-23T17:43:16.572Z,11.55
2022-12-23T17:45:44.597Z,11.58
2022-12-23T17:48:17.937Z,11.61
2022-12-23T17:50:47.567Z,11.60
2022-12-23T17:53:16.068Z,11.60
2022-12-23T17:55:42.663Z,11.64
2022-12-23T17:58:09.983Z,11.64
2022-12-23T18:00:38.043Z,11.71
2022-12-23T18:03:06.329Z,11.72
2022-12-23T18:05:36.072Z,11.77
2022-12-23T18:08:03.538Z,11.73
2022-12-23T18:10:33.067Z,11.72
2022-12-23T18:13:02.550Z,11.73
2022-12-23T18:15:37.813Z,11.80
2022-12-23T18:18:33.031Z,11.83
2022-12-23T18:21:02.196Z,11.83
2022-12-23T18:23:31.366Z,11.84
2022-12-23T18:25:58.718Z,11.88
2022-12-23T18:28:26.148Z,11.92
2022-12-23T18:30:54.535Z,11.90
2022-12-23T18:33:20.972Z,11.95
2022-12-23T18:35:49.524Z,11.98
2022-12-23T18:38:17.526Z,12.06
2022-12-23T18:40:44.686Z,12.05
2022-12-23T18:43:21.691Z,12.07
2022-12-23T18:45:52.810Z,12.05
2022-12-23T18:48:19.819Z,12.08
2022-12-23T18:50:46.791Z,12.12
2022-12-23T18:53:23.706Z,12.10
2022-12-23T18:55:51.718Z,12.05
2022-12-23T18:58:19.197Z,12.02
2022-12-23T19:00:46.776Z,12.04
2022-12-23T19:03:25.500Z,12.05
2022-12-23T19:05:52.862Z,12.07
2022-12-23T19:08:25.816Z,12.07
2022-12-23T19:10:53.425Z,12.06
2022-12-23T19:13:20.274Z,12.06
2022-12-23T19:15:46.773Z,12.07
2022-12-23T19:18:15.889Z,12.12
2022-12-23T19:20:43.942Z,12.10
2022-12-23T19:23:11.435Z,12.15
2022-12-23T19:25:41.494Z,12.15
2022-12-23T19:28:08.133Z,12.18
2022-12-23T19:30:34.564Z,12.18
2022-12-23T19:33:01.065Z,12.15
2022-12-23T19:35:28.717Z,12.15
2022-12-23T19:37:55.145Z,12.15
2022-12-23T19:40:21.673Z,12.16
2022-12-23T19:42:48.229Z,12.15
2022-12-23T19:45:14.690Z,12.16
2022-12-23T19:47:41.082Z,12.19
2022-12-23T19:50:08.293Z,12.17
2022-12-23T19:52:34.916Z,12.18
2022-12-23T19:55:01.389Z,12.18
2022-12-23T19:57:27.819Z,12.16
2022-12-23T19:59:54.362Z,12.15
2022-12-23T20:02:20.897Z,12.14
2022-12-23T20:04:47.370Z,12.14
2022-12-23T20:07:13.757Z,12.14
2022-12-23T20:09:40.249Z,12.17
2022-12-23T20:12:06.820Z,12.21
2022-12-23T20:14:34.431Z,12.21
2022-12-23T20:17:01.142Z,12.22
2022-12-23T20:19:27.731Z,12.24
2022-12-23T20:21:54.117Z,12.26
2022-12-23T20:24:20.515Z,12.26
2022-12-23T20:26:47.522Z,12.23
2022-12-23T20:29:14.453Z,12.23
2022-12-23T20:31:41.284Z,12.23
2022-12-23T20:34:14.306Z,12.18
2022-12-23T20:36:41.012Z,12.19
2022-12-23T20:39:08.111Z,12.23
2022-12-23T20:41:35.298Z,12.24
2022-12-23T20:44:33.310Z,12.25
2022-12-23T20:46:49.052Z,12.26
2022-12-23T20:49:15.897Z,12.25
2022-12-23T20:51:42.261Z,12.23
2022-12-23T20:54:09.296Z,12.21
2022-12-23T20:56:35.805Z,12.22
2022-12-23T20:59:03.812Z,12.17
2022-12-23T21:01:35.908Z,12.09
2022-12-23T21:04:05.651Z,12.05
2022-12-23T21:06:32.246Z,12.06
2022-12-23T21:09:00.095Z,12.05
2022-12-23T21:11:31.414Z,11.96
2022-12-23T21:14:06.188Z,11.94
2022-12-23T21:16:35.009Z,11.89
2022-12-23T21:19:01.541Z,11.90
2022-12-23T21:21:29.019Z,11.92
2022-12-23T21:23:56.082Z,11.86
2022-12-23T21:26:28.102Z,11.83
2022-12-23T21:28:58.989Z,11.78
2022-12-23T21:31:26.733Z,11.78
2022-12-23T21:33:53.741Z,11.78
2022-12-23T21:36:26.031Z,11.73
2022-12-23T21:38:52.821Z,11.69
2022-12-23T21:41:22.421Z,11.61
2022-12-23T21:43:49.747Z,11.66
2022-12-23T21:46:18.886Z,11.66
2022-12-23T21:48:45.987Z,11.63
2022-12-23T21:51:20.168Z,11.62
2022-12-23T21:53:48.984Z,11.67
2022-12-23T21:56:17.910Z,11.65
2022-12-23T21:58:44.647Z,11.72
2022-12-23T22:01:16.918Z,11.68
2022-12-23T22:03:44.533Z,11.69
2022-12-23T22:06:14.317Z,11.68
2022-12-23T22:08:41.138Z,11.63
2022-12-23T22:11:12.944Z,11.59
2022-12-23T22:13:40.328Z,11.53
2022-12-23T22:16:15.601Z,11.45
2022-12-23T22:18:42.951Z,11.41
2022-12-23T22:21:15.071Z,11.36
2022-12-23T22:23:41.878Z,11.32
2022-12-23T22:26:10.115Z,11.30
2022-12-23T22:28:37.688Z,11.30
2022-12-23T22:31:06.762Z,11.31
2022-12-23T22:33:33.865Z,11.30
2022-12-23T22:36:00.774Z,11.29
2022-12-23T22:38:27.608Z,11.22
2022-12-23T22:40:54.381Z,11.16
2022-12-23T22:43:20.943Z,11.11
2022-12-23T22:45:47.415Z,11.03
2022-12-23T22:48:15.220Z,11.01
2022-12-23T22:50:41.599Z,10.98
2022-12-23T22:53:10.946Z,10.96
2022-12-23T22:55:37.402Z,10.97
2022-12-23T22:58:03.783Z,10.98
2022-12-23T23:00:30.262Z,10.98
2022-12-23T23:02:56.665Z,11.03
2022-12-23T23:05:23.087Z,11.05
2022-12-23T23:07:49.485Z,11.04
2022-12-23T23:10:16.462Z,11.03
2022-12-23T23:12:44.342Z,11.08
2022-12-23T23:15:11.120Z,11.11
2022-12-23T23:17:37.741Z,11.14
2022-12-23T23:20:04.546Z,11.18
2022-12-23T23:22:30.979Z,11.10
2022-12-23T23:24:57.377Z,11.08
2022-12-23T23:27:23.747Z,11.06
2022-12-23T23:29:50.099Z,11.06
2022-12-23T23:32:16.568Z,11.08
2022-12-23T23:34:43.046Z,11.08
2022-12-23T23:37:09.460Z,11.10
2022-12-23T23:39:35.845Z,11.12
2022-12-23T23:42:02.185Z,11.16
2022-12-23T23:44:28.577Z,11.14
2022-12-23T23:46:54.988Z,11.12
2022-12-23T23:49:22.103Z,11.13
2022-12-23T23:51:50.077Z,11.08
2022-12-23T23:54:16.903Z,11.10
2022-12-23T23:56:43.272Z,11.08
2022-12-23T23:59:09.740Z,11.10
